| time (UTC) | temp F | wind direction | speed knots | gust knots | rain 1hr in | rain 24hr in | rain mn in | humidity % | barometer mb |
| 20260507175001 | 63 | 308 | 1.7 | 3.5 | 0.00 | 0.05 | 0.05 | 45 | 1010.6 |
| 20260507174458 | 65 | 323 | 1.7 | 3.5 | 0.00 | 0.05 | 0.05 | 44 | 1010.5 |
| 20260507173955 | 65 | 276 | 0.9 | 2.6 | 0.00 | 0.05 | 0.05 | 47 | 1010.7 |
| 20260507173452 | 64 | 345 | 0.9 | 3.5 | 0.00 | 0.05 | 0.05 | 48 | 1010.6 |
| 20260507172949 | 63 | 317 | 1.7 | 5.2 | 0.00 | 0.05 | 0.05 | 50 | 1010.9 |
| 20260507172445 | 63 | 213 | 0.9 | 2.6 | 0.00 | 0.05 | 0.05 | 50 | 1011.0 |
| 20260507171942 | 64 | 62 | 1.7 | 5.2 | 0.00 | 0.05 | 0.05 | 50 | 1011.0 |
| 20260507171438 | 63 | 75 | 1.7 | 1.7 | 0.00 | 0.05 | 0.05 | 49 | 1011.2 |
| 20260507170935 | 64 | 314 | 0.9 | 3.5 | 0.00 | 0.05 | 0.05 | 51 | 1011.1 |
| 20260507170432 | 63 | 298 | 1.7 | 2.6 | 0.00 | 0.05 | 0.05 | 50 | 1011.4 |
| 20260507165928 | 64 | 81 | 2.6 | 6.1 | 0.00 | 0.05 | 0.05 | 52 | 1011.3 |
| 20260507165424 | 64 | 282 | 0.0 | 2.6 | 0.00 | 0.05 | 0.05 | 54 | 1011.4 |
| 20260507164920 | 63 | 302 | 0.9 | 1.7 | 0.00 | 0.05 | 0.05 | 53 | 1011.5 |
| 20260507164417 | 63 | 277 | 2.6 | 2.6 | 0.00 | 0.05 | 0.05 | 52 | 1011.5 |
| 20260507163914 | 63 | 342 | 0.9 | 1.7 | 0.00 | 0.05 | 0.05 | 53 | 1011.7 |
| 20260507163412 | 62 | 265 | 1.7 | 3.5 | 0.00 | 0.05 | 0.05 | 54 | 1011.8 |
| 20260507162908 | 62 | 299 | 0.0 | 2.6 | 0.00 | 0.05 | 0.05 | 54 | 1011.8 |
| 20260507162403 | 61 | 321 | 1.7 | 1.7 | 0.00 | 0.05 | 0.05 | 56 | 1011.8 |
| 20260507161901 | 61 | 272 | 0.9 | 1.7 | 0.00 | 0.05 | 0.05 | 56 | 1012.0 |
| 20260507161357 | 61 | 340 | 2.6 | 3.5 | 0.00 | 0.05 | 0.05 | 57 | 1012.0 |
| 20260507160854 | 61 | 335 | 1.7 | 2.6 | 0.00 | 0.05 | 0.05 | 59 | 1012.1 |
| 20260507160349 | 59 | 355 | 0.9 | 1.7 | 0.00 | 0.05 | 0.05 | 60 | 1012.0 |
| 20260507155846 | 60 | 281 | 3.5 | 7.8 | 0.00 | 0.05 | 0.05 | 58 | 1012.1 |
| 20260507155342 | 59 | 336 | 1.7 | 2.6 | 0.00 | 0.05 | 0.05 | 62 | 1012.1 |
| 20260507154839 | 60 | 307 | 1.7 | 2.6 | 0.00 | 0.05 | 0.05 | 61 | 1012.0 |
| 20260507154336 | 60 | 11 | 1.7 | 5.2 | 0.00 | 0.05 | 0.05 | 62 | 1012.2 |
| 20260507153833 | 60 | 344 | 1.7 | 2.6 | 0.00 | 0.05 | 0.05 | 61 | 1012.3 |
| 20260507153330 | 60 | 8 | 0.9 | 2.6 | 0.00 | 0.05 | 0.05 | 61 | 1012.3 |
| 20260507152826 | 59 | 314 | 1.7 | 6.1 | 0.00 | 0.05 | 0.05 | 63 | 1012.6 |
| 20260507152323 | 59 | 100 | 2.6 | 5.2 | 0.00 | 0.05 | 0.05 | 66 | 1012.6 |
| 20260507151819 | 58 | 300 | 0.9 | 3.5 | 0.00 | 0.05 | 0.05 | 67 | 1012.6 |
| 20260507151315 | 59 | 313 | 1.7 | 2.6 | 0.00 | 0.05 | 0.05 | 63 | 1012.7 |
| 20260507150812 | 60 | 343 | 1.7 | 5.2 | 0.00 | 0.05 | 0.05 | 66 | 1013.0 |
| 20260507150309 | 58 | 341 | 1.7 | 2.6 | 0.00 | 0.05 | 0.05 | 68 | 1013.0 |
| 20260507145805 | 58 | 301 | 1.7 | 2.6 | 0.00 | 0.05 | 0.05 | 70 | 1012.9 |
| 20260507145301 | 57 | 305 | 3.5 | 5.2 | 0.00 | 0.05 | 0.05 | 70 | 1012.9 |
| 20260507144759 | 58 | 328 | 1.7 | 2.6 | 0.00 | 0.05 | 0.05 | 70 | 1012.9 |
| 20260507144256 | 58 | 327 | 1.7 | 3.5 | 0.00 | 0.05 | 0.05 | 73 | 1012.8 |
| 20260507143752 | 57 | 329 | 0.9 | 1.7 | 0.00 | 0.05 | 0.05 | 75 | 1012.9 |
| 20260507143250 | 56 | 324 | 0.9 | 2.6 | 0.00 | 0.05 | 0.05 | 76 | 1013.3 |
| 20260507142745 | 56 | 26 | 1.7 | 2.6 | 0.00 | 0.05 | 0.05 | 77 | 1013.4 |
| 20260507142242 | 55 | 357 | 0.9 | 1.7 | 0.00 | 0.05 | 0.05 | 78 | 1013.3 |
| 20260507141739 | 55 | 314 | 1.7 | 5.2 | 0.00 | 0.05 | 0.05 | 77 | 1013.0 |
| 20260507141236 | 56 | 330 | 1.7 | 2.6 | 0.00 | 0.05 | 0.05 | 76 | 1013.1 |
| 20260507140732 | 55 | 330 | 0.9 | 3.5 | 0.00 | 0.05 | 0.05 | 77 | 1013.1 |
| 20260507140230 | 55 | 312 | 0.9 | 1.7 | 0.00 | 0.05 | 0.05 | 78 | 1013.2 |
| 20260507135726 | 55 | 15 | 0.9 | 3.5 | 0.00 | 0.05 | 0.05 | 81 | 1013.3 |
| 20260507135224 | 55 | 337 | 0.9 | 2.6 | 0.00 | 0.05 | 0.05 | 82 | 1013.2 |
| 20260507134720 | 55 | 252 | 0.9 | 1.7 | 0.00 | 0.05 | 0.05 | 83 | 1013.2 |
| 20260507134216 | 55 | 326 | 0.9 | 1.7 | 0.00 | 0.05 | 0.05 | 84 | 1013.4 |
| 20260507133712 | 55 | 323 | 0.9 | 1.7 | 0.00 | 0.05 | 0.05 | 84 | 1013.3 |
| 20260507133209 | 55 | 345 | 0.0 | 0.9 | 0.00 | 0.05 | 0.05 | 85 | 1013.3 |
| 20260507132707 | 54 | 312 | 0.9 | 1.7 | 0.00 | 0.05 | 0.05 | 88 | 1013.1 |
| 20260507132203 | 54 | 310 | 0.9 | 1.7 | 0.00 | 0.05 | 0.05 | 89 | 1013.3 |
| 20260507131700 | 54 | 311 | 0.9 | 1.7 | 0.00 | 0.05 | 0.05 | 90 | 1013.3 |
| 20260507131157 | 54 | 331 | 0.0 | 1.7 | 0.00 | 0.05 | 0.05 | 91 | 1013.4 |
| 20260507130654 | 54 | 274 | 1.7 | 2.6 | 0.00 | 0.05 | 0.05 | 91 | 1013.3 |
| 20260507130152 | 54 | 311 | 0.9 | 2.6 | 0.00 | 0.05 | 0.05 | 92 | 1013.1 |
| 20260507125650 | 54 | 333 | 0.9 | 3.5 | 0.00 | 0.05 | 0.05 | 92 | 1013.5 |
| 20260507125148 | 53 | 10 | 0.0 | 0.9 | 0.00 | 0.05 | 0.05 | 93 | 1013.4 |
| 20260507124643 | 54 | 292 | 0.9 | 3.5 | 0.00 | 0.05 | 0.05 | 92 | 1013.1 |
| 20260507124141 | 54 | 326 | 0.9 | 1.7 | 0.00 | 0.05 | 0.05 | 93 | 1013.2 |
| 20260507123639 | 54 | 324 | 0.0 | 0.9 | 0.00 | 0.05 | 0.05 | 94 | 1013.1 |
| 20260507123136 | 53 | 324 | 0.0 | 1.7 | 0.00 | 0.05 | 0.05 | 94 | 1013.3 |
| 20260507122631 | 53 | 305 | 0.0 | 1.7 | 0.00 | 0.05 | 0.05 | 94 | 1013.2 |
| 20260507122127 | 53 | 311 | 1.7 | 1.7 | 0.00 | 0.05 | 0.05 | 93 | 1013.1 |
| 20260507121624 | 53 | 333 | 0.9 | 1.7 | 0.00 | 0.05 | 0.05 | 94 | 1013.1 |
| 20260507121119 | 53 | 320 | 0.0 | 0.9 | 0.00 | 0.05 | 0.05 | 95 | 1013.0 |
| 20260507120616 | 53 | 329 | 0.0 | 0.9 | 0.00 | 0.05 | 0.05 | 95 | 1013.0 |
| 20260507120113 | 53 | 321 | 0.0 | 0.9 | 0.00 | 0.05 | 0.05 | 95 | 1013.0 |
| 20260507115609 | 53 | 327 | 0.0 | 0.0 | 0.00 | 0.05 | 0.05 | 96 | 1013.0 |
| 20260507115105 | 53 | 327 | 0.0 | 0.0 | 0.00 | 0.05 | 0.05 | 96 | 1013.1 |
| 20260507114601 | 52 | 325 | 0.0 | 0.9 | 0.00 | 0.05 | 0.05 | 97 | 1013.1 |
| 20260507114058 | 52 | 325 | 0.0 | 0.0 | 0.00 | 0.05 | 0.05 | 98 | 1013.4 |
| 20260507113555 | 52 | 343 | 0.0 | 0.0 | 0.00 | 0.05 | 0.05 | 99 | 1013.2 |
| 20260507113052 | 52 | 319 | 0.0 | 0.0 | 0.00 | 0.05 | 0.05 | 99 | 1012.9 |
| 20260507112550 | 51 | 319 | 0.0 | 0.0 | 0.00 | 0.05 | 0.05 | 99 | 1013.0 |
| 20260507112047 | 52 | 331 | 0.0 | 0.0 | 0.00 | 0.05 | 0.05 | 99 | 1012.8 |
| 20260507111544 | 51 | 337 | 0.0 | 0.0 | 0.00 | 0.05 | 0.05 | 99 | 1012.8 |
| 20260507111041 | 51 | 342 | 0.0 | 0.9 | 0.00 | 0.05 | 0.05 | 99 | 1012.6 |
| 20260507110537 | 51 | 329 | 0.0 | 0.0 | 0.00 | 0.05 | 0.05 | 99 | 1012.6 |
| 20260507110033 | 51 | 307 | 0.0 | 0.0 | 0.00 | 0.05 | 0.05 | 99 | 1012.7 |
| 20260507105531 | 51 | 307 | 0.0 | 0.0 | 0.00 | 0.05 | 0.05 | 99 | 1012.5 |
| 20260507105026 | 51 | 307 | 0.0 | 0.0 | 0.00 | 0.05 | 0.05 | 99 | 1012.1 |
| 20260507104524 | 50 | 307 | 0.0 | 0.0 | 0.00 | 0.05 | 0.05 | 99 | 1012.3 |
| 20260507104020 | 50 | 307 | 0.0 | 0.0 | 0.00 | 0.05 | 0.05 | 99 | 1012.4 |
| 20260507103516 | 50 | 307 | 0.0 | 0.0 | 0.00 | 0.05 | 0.05 | 99 | 1012.1 |
| 20260507103013 | 50 | 307 | 0.0 | 0.0 | 0.00 | 0.05 | 0.05 | 99 | 1012.1 |
| 20260507102510 | 50 | 307 | 0.0 | 0.0 | 0.00 | 0.05 | 0.05 | 99 | 1012.0 |
| 20260507102007 | 50 | 307 | 0.0 | 0.0 | 0.00 | 0.05 | 0.05 | 99 | 1011.9 |
| 20260507101501 | 50 | 315 | 0.0 | 0.0 | 0.00 | 0.05 | 0.05 | 99 | 1011.7 |
| 20260507100958 | 50 | 315 | 0.0 | 0.0 | 0.00 | 0.05 | 0.05 | 99 | 1012.0 |
| 20260507100455 | 50 | 315 | 0.0 | 0.0 | 0.00 | 0.05 | 0.05 | 99 | 1011.9 |
| 20260507095953 | 50 | 2 | 0.0 | 0.0 | 0.00 | 0.05 | 0.05 | 99 | 1011.9 |
| 20260507095451 | 50 | 2 | 0.0 | 0.0 | 0.00 | 0.05 | 0.05 | 99 | 1011.8 |
| 20260507094948 | 50 | 324 | 0.0 | 0.0 | 0.00 | 0.05 | 0.05 | 99 | 1011.9 |
| 20260507094444 | 50 | 324 | 0.0 | 0.0 | 0.00 | 0.05 | 0.05 | 99 | 1012.0 |
| 20260507093941 | 51 | 326 | 0.0 | 0.9 | 0.00 | 0.05 | 0.05 | 99 | 1012.0 |
| 20260507093439 | 51 | 326 | 0.0 | 0.9 | 0.00 | 0.05 | 0.05 | 99 | 1011.8 |
| 20260507092937 | 51 | 72 | 1.7 | 1.7 | 0.00 | 0.05 | 0.05 | 99 | 1011.7 |
| 20260507092433 | 51 | 5 | 0.0 | 0.0 | 0.00 | 0.05 | 0.05 | 99 | 1011.9 |
| 20260507091930 | 51 | 8 | 0.0 | 0.9 | 0.00 | 0.05 | 0.05 | 99 | 1011.6 |
| 20260507091426 | 51 | 332 | 0.9 | 0.9 | 0.00 | 0.05 | 0.05 | 99 | 1011.7 |
| 20260507090922 | 51 | 331 | 0.0 | 0.0 | 0.00 | 0.05 | 0.05 | 99 | 1011.7 |
| 20260507090418 | 51 | 331 | 0.0 | 0.9 | 0.00 | 0.05 | 0.05 | 99 | 1011.8 |
| 20260507085915 | 51 | 26 | 0.0 | 1.7 | 0.00 | 0.05 | 0.05 | 99 | 1011.7 |
| 20260507085412 | 51 | 344 | 0.0 | 0.9 | 0.00 | 0.05 | 0.05 | 99 | 1011.7 |
| 20260507084909 | 51 | 319 | 0.0 | 0.0 | 0.00 | 0.05 | 0.05 | 99 | 1011.6 |
| 20260507084406 | 51 | 309 | 0.9 | 2.6 | 0.00 | 0.05 | 0.05 | 99 | 1011.5 |
| 20260507083903 | 51 | 318 | 0.9 | 1.7 | 0.00 | 0.05 | 0.05 | 99 | 1011.4 |
| 20260507083359 | 51 | 310 | 0.0 | 0.9 | 0.00 | 0.05 | 0.05 | 99 | 1011.3 |
| 20260507082855 | 51 | 319 | 1.7 | 2.6 | 0.00 | 0.05 | 0.05 | 99 | 1011.3 |
| 20260507082351 | 51 | 316 | 1.7 | 2.6 | 0.00 | 0.05 | 0.05 | 99 | 1011.3 |
| 20260507081849 | 51 | 338 | 0.9 | 0.9 | 0.00 | 0.05 | 0.05 | 99 | 1011.3 |
| 20260507081345 | 51 | 314 | 1.7 | 2.6 | 0.00 | 0.05 | 0.05 | 99 | 1011.4 |
| 20260507080842 | 51 | 320 | 0.9 | 2.6 | 0.00 | 0.05 | 0.05 | 99 | 1011.4 |
| 20260507080338 | 51 | 317 | 0.0 | 2.6 | 0.00 | 0.05 | 0.05 | 99 | 1011.4 |
| 20260507075833 | 51 | 356 | 0.0 | 0.0 | 0.00 | 0.05 | 0.05 | 99 | 1011.5 |
| 20260507075329 | 51 | 327 | 1.7 | 1.7 | 0.00 | 0.05 | 0.05 | 99 | 1011.3 |
| 20260507074826 | 51 | 323 | 1.7 | 2.6 | 0.00 | 0.05 | 0.05 | 99 | 1011.5 |
| 20260507074324 | 51 | 340 | 0.9 | 1.7 | 0.00 | 0.05 | 0.05 | 99 | 1011.6 |
| 20260507073821 | 51 | 300 | 1.7 | 5.2 | 0.00 | 0.05 | 0.05 | 99 | 1011.5 |
| 20260507073317 | 51 | 303 | 2.6 | 3.5 | 0.00 | 0.05 | 0.05 | 99 | 1011.6 |
| 20260507072814 | 51 | 317 | 1.7 | 2.6 | 0.00 | 0.05 | 0.05 | 99 | 1011.6 |
| 20260507072312 | 51 | 317 | 1.7 | 2.6 | 0.00 | 0.05 | 0.05 | 99 | 1011.6 |
| 20260507071809 | 51 | 319 | 0.9 | 2.6 | 0.00 | 0.05 | 0.05 | 99 | 1012.0 |
| 20260507071306 | 51 | 292 | 0.0 | 2.6 | 0.00 | 0.05 | 0.05 | 99 | 1012.0 |
| 20260507070802 | 52 | 310 | 2.6 | 2.6 | 0.00 | 0.05 | 0.05 | 99 | 1011.8 |
| 20260507070300 | 52 | 318 | 0.0 | 0.9 | 0.00 | 0.05 | 0.05 | 99 | 1011.7 |
| 20260507065756 | 52 | 339 | 1.7 | 2.6 | 0.00 | 0.05 | 0.05 | 99 | 1011.7 |
| 20260507065253 | 52 | 322 | 1.7 | 3.5 | 0.00 | 0.05 | 0.05 | 99 | 1011.4 |
| 20260507064750 | 52 | 339 | 2.6 | 5.2 | 0.00 | 0.05 | 0.05 | 99 | 1011.5 |
| 20260507064249 | 52 | 320 | 1.7 | 2.6 | 0.00 | 0.05 | 0.05 | 99 | 1011.5 |
| 20260507063746 | 53 | 310 | 0.9 | 1.7 | 0.00 | 0.05 | 0.05 | 99 | 1011.4 |
| 20260507063243 | 53 | 314 | 2.6 | 2.6 | 0.00 | 0.05 | 0.05 | 99 | 1011.0 |
| 20260507062740 | 53 | 313 | 0.9 | 2.6 | 0.00 | 0.05 | 0.05 | 99 | 1011.1 |
| 20260507062237 | 53 | 318 | 0.0 | 0.9 | 0.00 | 0.05 | 0.05 | 99 | 1011.3 |
| 20260507061735 | 54 | 304 | 1.7 | 1.7 | 0.07 | 0.05 | 0.05 | 99 | 1011.3 |
| 20260507061232 | 54 | 327 | 1.7 | 1.7 | 0.07 | 0.05 | 0.05 | 99 | 1011.4 |
| 20260507060731 | 54 | 313 | 0.9 | 1.7 | 0.00 | 0.04 | 0.04 | 99 | 1011.6 |
| 20260507060227 | 55 | 280 | 0.9 | 1.7 | 0.17 | 0.04 | 0.04 | 99 | 1011.5 |
| 20260507055723 | 55 | 303 | 1.7 | 2.6 | 0.24 | 0.04 | 0.04 | 99 | 1011.4 |
| 20260507055218 | 56 | 285 | 1.7 | 2.6 | 0.07 | 0.01 | 0.01 | 98 | 1011.6 |
| 20260507054715 | 56 | 307 | 2.6 | 3.5 | 0.00 | 0.00 | 0.00 | 95 | 1011.3 |
| 20260507054212 | 57 | 309 | 1.7 | 2.6 | 0.00 | 0.00 | 0.00 | 94 | 1011.3 |
| 20260507053710 | 57 | 353 | 1.7 | 2.6 | 0.00 | 0.00 | 0.00 | 94 | 1010.5 |
| 20260507053207 | 57 | 313 | 0.9 | 1.7 | 0.00 | 0.00 | 0.00 | 95 | 1010.4 |
| 20260507052706 | 57 | 311 | 1.7 | 2.6 | 0.00 | 0.00 | 0.00 | 95 | 1011.3 |
| 20260507052201 | 57 | 320 | 1.7 | 1.7 | 0.00 | 0.00 | 0.00 | 96 | 1010.9 |
| 20260507051700 | 58 | 306 | 0.0 | 0.9 | 0.00 | 0.00 | 0.00 | 96 | 1010.9 |
| 20260507051155 | 58 | 327 | 0.0 | 1.7 | 0.00 | 0.00 | 0.00 | 95 | 1010.9 |
| 20260507050653 | 58 | 326 | 0.9 | 1.7 | 0.00 | 0.00 | 0.00 | 96 | 1010.7 |
| 20260507050149 | 58 | 310 | 0.9 | 1.7 | 0.00 | 0.00 | 0.00 | 96 | 1010.5 |
| 20260507045646 | 58 | 323 | 0.9 | 1.7 | 0.00 | 0.00 | 0.00 | 96 | 1010.0 |
| 20260507045143 | 58 | 332 | 0.0 | 0.9 | 0.00 | 0.00 | 0.00 | 96 | 1010.0 |
| 20260507044640 | 58 | 356 | 0.0 | 1.7 | 0.00 | 0.00 | 0.00 | 96 | 1010.1 |
| 20260507044137 | 58 | 319 | 0.9 | 1.7 | 0.00 | 0.00 | 0.00 | 96 | 1010.2 |
| 20260507043633 | 58 | 311 | 1.7 | 2.6 | 0.00 | 0.00 | 0.00 | 96 | 1010.5 |
| 20260507043130 | 58 | 312 | 0.9 | 3.5 | 0.00 | 0.00 | 0.00 | 97 | 1010.5 |
| 20260507042626 | 58 | 312 | 2.6 | 2.6 | 0.00 | 0.00 | 0.00 | 97 | 1010.3 |
| 20260507042121 | 59 | 300 | 0.0 | 2.6 | 0.00 | 0.00 | 0.00 | 97 | 1010.0 |
| 20260507041618 | 59 | 340 | 0.9 | 2.6 | 0.00 | 0.00 | 0.00 | 98 | 1010.4 |
| 20260507041115 | 60 | 308 | 3.5 | 5.2 | 0.00 | 0.00 | 0.00 | 98 | 1010.4 |
| 20260507040612 | 63 | 316 | 3.5 | 7.0 | 0.00 | 0.00 | 0.00 | 99 | 1010.3 |
| 20260507040109 | 63 | 333 | 0.0 | 0.0 | 0.00 | 0.01 | 0.01 | 99 | 1010.0 |
| 20260507035604 | 64 | 308 | 0.0 | 0.9 | 0.00 | 0.01 | 0.01 | 99 | 1009.9 |
| 20260507035101 | 64 | 320 | 1.7 | 2.6 | 0.00 | 0.01 | 0.01 | 98 | 1009.9 |
| 20260507034557 | 64 | 310 | 0.9 | 1.7 | 0.00 | 0.01 | 0.01 | 98 | 1010.0 |
| 20260507034056 | 65 | 288 | 0.9 | 0.9 | 0.00 | 0.01 | 0.01 | 99 | 1010.1 |
| 20260507033553 | 65 | 318 | 0.0 | 1.7 | 0.00 | 0.01 | 0.01 | 98 | 1010.3 |
| 20260507033050 | 66 | 329 | 1.7 | 1.7 | 0.00 | 0.01 | 0.01 | 97 | 1010.1 |
| 20260507032547 | 66 | 358 | 0.0 | 0.0 | 0.00 | 0.01 | 0.01 | 95 | 1009.9 |
| 20260507032043 | 66 | 358 | 0.0 | 0.0 | 0.00 | 0.01 | 0.01 | 95 | 1009.7 |
| 20260507031540 | 66 | 33 | 0.0 | 0.0 | 0.00 | 0.01 | 0.01 | 95 | 1009.5 |
| 20260507031037 | 66 | 102 | 0.0 | 0.0 | 0.00 | 0.01 | 0.01 | 95 | 1009.5 |
| 20260507030534 | 66 | 185 | 0.0 | 0.0 | 0.00 | 0.01 | 0.01 | 95 | 1009.6 |
| 20260507030032 | 66 | 160 | 0.0 | 0.0 | 0.00 | 0.01 | 0.01 | 95 | 1009.5 |
| 20260507025528 | 66 | 208 | 0.0 | 0.0 | 0.00 | 0.01 | 0.01 | 95 | 1009.6 |
| 20260507025026 | 65 | 87 | 0.0 | 0.0 | 0.00 | 0.01 | 0.01 | 95 | 1009.9 |
| 20260507024523 | 66 | 231 | 0.0 | 0.0 | 0.00 | 0.01 | 0.01 | 95 | 1009.8 |
| 20260507024020 | 65 | 194 | 0.9 | 0.9 | 0.00 | 0.01 | 0.01 | 95 | 1009.8 |
| 20260507023516 | 65 | 43 | 0.0 | 0.0 | 0.00 | 0.01 | 0.01 | 95 | 1009.5 |
| 20260507023014 | 65 | 204 | 0.0 | 0.9 | 0.00 | 0.01 | 0.01 | 95 | 1009.5 |
| 20260507022511 | 65 | 176 | 0.0 | 0.9 | 0.00 | 0.01 | 0.01 | 95 | 1009.5 |
| 20260507022006 | 65 | 152 | 0.0 | 0.0 | 0.00 | 0.01 | 0.01 | 95 | 1009.7 |
| 20260507021502 | 65 | 203 | 0.0 | 0.9 | 0.00 | 0.01 | 0.01 | 95 | 1009.7 |
| 20260507020959 | 65 | 172 | 0.0 | 2.6 | 0.00 | 0.01 | 0.01 | 96 | 1009.7 |
| 20260507020456 | 65 | 198 | 0.9 | 1.7 | 0.00 | 0.01 | 0.01 | 96 | 1009.8 |
| 20260507015952 | 65 | 127 | 0.0 | 0.9 | 0.00 | 0.01 | 0.01 | 95 | 1009.8 |
| 20260507015451 | 66 | 16 | 0.0 | 0.9 | 0.00 | 0.01 | 0.01 | 95 | 1009.8 |
| 20260507014948 | 66 | 237 | 1.7 | 3.5 | 0.00 | 0.01 | 0.01 | 94 | 1009.8 |
| 20260507014444 | 66 | 214 | 0.0 | 0.0 | 0.00 | 0.01 | 0.01 | 94 | 1009.7 |
| 20260507013940 | 66 | 165 | 0.0 | 0.9 | 0.00 | 0.01 | 0.01 | 94 | 1009.8 |
| 20260507013437 | 66 | 233 | 0.9 | 2.6 | 0.00 | 0.01 | 0.01 | 93 | 1009.7 |
| 20260507012935 | 66 | 202 | 0.0 | 0.9 | 0.00 | 0.01 | 0.01 | 93 | 1009.8 |
| 20260507012431 | 66 | 189 | 0.0 | 0.9 | 0.00 | 0.01 | 0.01 | 93 | 1009.9 |
| 20260507011923 | 66 | 212 | 0.0 | 3.5 | 0.00 | 0.01 | 0.01 | 93 | 1009.8 |
| 20260507011420 | 66 | 117 | 0.0 | 0.0 | 0.00 | 0.01 | 0.01 | 93 | 1009.7 |
| 20260507010919 | 66 | 283 | 0.0 | 0.9 | 0.00 | 0.01 | 0.01 | 93 | 1009.8 |
| 20260507010414 | 66 | 117 | 0.0 | 0.0 | 0.00 | 0.01 | 0.01 | 93 | 1009.8 |
| 20260507005912 | 66 | 217 | 0.0 | 0.9 | 0.00 | 0.01 | 0.01 | 93 | 1010.1 |
| 20260507005409 | 66 | 160 | 0.0 | 1.7 | 0.00 | 0.01 | 0.01 | 93 | 1009.8 |
| 20260507004905 | 66 | 186 | 0.0 | 0.9 | 0.00 | 0.01 | 0.01 | 94 | 1010.0 |
| 20260507004402 | 66 | 162 | 0.0 | 0.0 | 0.00 | 0.01 | 0.01 | 93 | 1009.7 |
| 20260507003900 | 66 | 144 | 0.0 | 0.0 | 0.00 | 0.01 | 0.01 | 92 | 1009.2 |
| 20260507003355 | 66 | 163 | 0.9 | 1.7 | 0.00 | 0.01 | 0.01 | 92 | 1009.2 |
| 20260507002850 | 67 | 160 | 0.9 | 1.7 | 0.00 | 0.01 | 0.01 | 91 | 1009.3 |
| 20260507002347 | 67 | 217 | 0.0 | 0.0 | 0.00 | 0.01 | 0.01 | 91 | 1009.0 |
| 20260507001844 | 67 | 212 | 0.0 | 0.9 | 0.00 | 0.01 | 0.01 | 90 | 1009.1 |
| 20260507001341 | 67 | 113 | 0.0 | 0.0 | 0.00 | 0.01 | 0.01 | 90 | 1009.1 |
| 20260507000837 | 68 | 144 | 0.0 | 0.0 | 0.00 | 0.01 | 0.01 | 89 | 1009.1 |
| 20260507000333 | 68 | 230 | 1.7 | 2.6 | 0.00 | 0.01 | 0.01 | 89 | 1009.0 |
| 20260506235829 | 68 | 100 | 0.0 | 1.7 | 0.00 | 0.01 | 0.01 | 89 | 1009.1 |
| 20260506235326 | 68 | 183 | 0.0 | 0.0 | 0.00 | 0.01 | 0.01 | 88 | 1008.9 |
| 20260506234822 | 68 | 159 | 0.0 | 0.9 | 0.00 | 0.01 | 0.01 | 88 | 1009.0 |
| 20260506234320 | 68 | 139 | 0.0 | 6.1 | 0.00 | 0.01 | 0.01 | 87 | 1008.9 |
| 20260506233818 | 69 | 240 | 2.6 | 2.6 | 0.00 | 0.01 | 0.01 | 87 | 1008.9 |
| 20260506233313 | 69 | 190 | 0.0 | 3.5 | 0.00 | 0.01 | 0.01 | 87 | 1008.9 |
| 20260506232810 | 69 | 163 | 0.0 | 1.7 | 0.00 | 0.01 | 0.01 | 86 | 1008.9 |
| 20260506232306 | 69 | 263 | 0.0 | 2.6 | 0.00 | 0.01 | 0.01 | 86 | 1009.0 |
| 20260506231802 | 69 | 272 | 0.0 | 0.9 | 0.00 | 0.01 | 0.01 | 86 | 1009.1 |
| 20260506231301 | 70 | 179 | 2.6 | 2.6 | 0.00 | 0.01 | 0.01 | 85 | 1009.0 |
| 20260506230759 | 70 | 190 | 2.6 | 3.5 | 0.00 | 0.01 | 0.01 | 85 | 1009.0 |
| 20260506230255 | 70 | 195 | 0.0 | 0.9 | 0.00 | 0.01 | 0.01 | 85 | 1008.9 |
| 20260506225751 | 70 | 236 | 1.7 | 5.2 | 0.00 | 0.01 | 0.01 | 84 | 1008.9 |
| 20260506225248 | 70 | 161 | 0.0 | 2.6 | 0.00 | 0.01 | 0.01 | 85 | 1008.8 |
| 20260506224744 | 69 | 255 | 1.7 | 3.5 | 0.00 | 0.01 | 0.01 | 85 | 1008.9 |
| 20260506224242 | 69 | 193 | 2.6 | 6.1 | 0.00 | 0.01 | 0.01 | 86 | 1009.0 |
| 20260506223738 | 69 | 167 | 2.6 | 2.6 | 0.00 | 0.01 | 0.01 | 86 | 1008.8 |
| 20260506223234 | 69 | 215 | 1.7 | 5.2 | 0.00 | 0.01 | 0.01 | 85 | 1008.9 |
| 20260506222731 | 69 | 91 | 0.9 | 0.9 | 0.00 | 0.01 | 0.01 | 86 | 1008.8 |
| 20260506222226 | 69 | 139 | 1.7 | 2.6 | 0.00 | 0.01 | 0.01 | 86 | 1008.7 |
| 20260506221724 | 69 | 78 | 0.0 | 0.9 | 0.00 | 0.01 | 0.01 | 86 | 1008.6 |
| 20260506221222 | 69 | 109 | 1.7 | 2.6 | 0.00 | 0.01 | 0.01 | 85 | 1008.9 |
| 20260506220719 | 69 | 150 | 3.5 | 6.1 | 0.00 | 0.01 | 0.01 | 86 | 1008.8 |
| 20260506220214 | 69 | 182 | 2.6 | 3.5 | 0.00 | 0.01 | 0.01 | 85 | 1008.9 |
| 20260506215711 | 69 | 77 | 0.9 | 3.5 | 0.00 | 0.01 | 0.01 | 85 | 1008.8 |
| 20260506215206 | 69 | 279 | 0.9 | 2.6 | 0.00 | 0.01 | 0.01 | 84 | 1008.8 |
| 20260506214703 | 70 | 146 | 3.5 | 7.8 | 0.00 | 0.01 | 0.01 | 84 | 1008.8 |
| 20260506214200 | 69 | 252 | 0.0 | 5.2 | 0.00 | 0.01 | 0.01 | 85 | 1008.7 |
| 20260506213659 | 69 | 255 | 0.9 | 1.7 | 0.00 | 0.01 | 0.01 | 85 | 1008.7 |
| 20260506213156 | 70 | 73 | 4.3 | 7.8 | 0.00 | 0.01 | 0.01 | 83 | 1008.5 |
| 20260506212653 | 71 | 302 | 0.9 | 3.5 | 0.00 | 0.01 | 0.01 | 84 | 1008.6 |
| 20260506212148 | 70 | 154 | 0.9 | 3.5 | 0.00 | 0.01 | 0.01 | 84 | 1008.6 |
| 20260506211643 | 69 | 309 | 0.9 | 7.0 | 0.00 | 0.01 | 0.01 | 84 | 1008.5 |
| 20260506211141 | 69 | 255 | 0.9 | 7.0 | 0.00 | 0.01 | 0.01 | 84 | 1008.7 |
| 20260506210638 | 70 | 73 | 0.0 | 3.5 | 0.00 | 0.01 | 0.01 | 84 | 1008.5 |
| 20260506210134 | 70 | 155 | 2.6 | 2.6 | 0.00 | 0.01 | 0.01 | 82 | 1008.6 |
| 20260506205631 | 70 | 282 | 2.6 | 5.2 | 0.00 | 0.01 | 0.01 | 82 | 1008.4 |
| 20260506205126 | 70 | 314 | 0.9 | 3.5 | 0.00 | 0.01 | 0.01 | 83 | 1008.2 |
| 20260506204624 | 69 | 189 | 0.9 | 5.2 | 0.00 | 0.01 | 0.01 | 84 | 1008.3 |
| 20260506204121 | 70 | 282 | 4.3 | 6.1 | 0.00 | 0.01 | 0.01 | 83 | 1008.3 |
| 20260506203619 | 69 | 232 | 1.7 | 7.0 | 0.00 | 0.01 | 0.01 | 84 | 1008.4 |
| 20260506203115 | 69 | 293 | 0.9 | 7.8 | 0.00 | 0.01 | 0.01 | 85 | 1008.4 |
| 20260506202613 | 68 | 163 | 2.6 | 11.3 | 0.00 | 0.01 | 0.01 | 85 | 1008.3 |
| 20260506202109 | 68 | 148 | 2.6 | 3.5 | 0.00 | 0.01 | 0.01 | 86 | 1008.3 |
| 20260506201607 | 68 | 202 | 1.7 | 3.5 | 0.00 | 0.01 | 0.01 | 86 | 1008.5 |
| 20260506201103 | 68 | 168 | 2.6 | 8.7 | 0.00 | 0.01 | 0.01 | 86 | 1008.5 |
| 20260506200559 | 68 | 248 | 5.2 | 7.0 | 0.00 | 0.01 | 0.01 | 86 | 1008.4 |
| 20260506200056 | 68 | 222 | 0.9 | 5.2 | 0.00 | 0.01 | 0.01 | 86 | 1008.4 |
| 20260506195553 | 68 | 232 | 3.5 | 8.7 | 0.00 | 0.01 | 0.01 | 86 | 1008.5 |
| 20260506195049 | 68 | 81 | 3.5 | 5.2 | 0.00 | 0.01 | 0.01 | 86 | 1008.7 |
| 20260506194547 | 68 | 128 | 2.6 | 7.0 | 0.00 | 0.01 | 0.01 | 86 | 1008.8 |
| 20260506194043 | 67 | 199 | 0.0 | 2.6 | 0.00 | 0.01 | 0.01 | 88 | 1008.9 |
| 20260506193541 | 67 | 175 | 2.6 | 3.5 | 0.00 | 0.01 | 0.01 | 88 | 1008.9 |
| 20260506193038 | 67 | 272 | 0.0 | 5.2 | 0.00 | 0.01 | 0.01 | 88 | 1009.1 |
| 20260506192535 | 67 | 236 | 4.3 | 9.6 | 0.00 | 0.01 | 0.01 | 88 | 1009.0 |
| 20260506192030 | 67 | 201 | 3.5 | 8.7 | 0.00 | 0.01 | 0.01 | 88 | 1009.0 |
| 20260506191527 | 67 | 283 | 0.9 | 7.0 | 0.00 | 0.01 | 0.01 | 88 | 1009.0 |
| 20260506191024 | 67 | 197 | 4.3 | 7.0 | 0.00 | 0.01 | 0.01 | 88 | 1009.0 |
| 20260506190521 | 67 | 182 | 1.7 | 7.0 | 0.00 | 0.01 | 0.01 | 88 | 1009.0 |
| 20260506190019 | 67 | 210 | 3.5 | 7.8 | 0.00 | 0.01 | 0.01 | 89 | 1008.8 |
| 20260506185515 | 66 | 243 | 1.7 | 3.5 | 0.00 | 0.01 | 0.01 | 89 | 1008.9 |
| 20260506185011 | 66 | 274 | 2.6 | 8.7 | 0.00 | 0.01 | 0.01 | 89 | 1009.0 |
| 20260506184509 | 66 | 142 | 2.6 | 3.5 | 0.00 | 0.01 | 0.01 | 90 | 1009.1 |
| 20260506184006 | 66 | 123 | 0.9 | 5.2 | 0.00 | 0.01 | 0.01 | 90 | 1009.1 |
| 20260506183501 | 66 | 187 | 4.3 | 6.1 | 0.00 | 0.01 | 0.01 | 90 | 1009.2 |
| 20260506182959 | 66 | 180 | 0.9 | 8.7 | 0.00 | 0.01 | 0.01 | 91 | 1009.4 |
| 20260506182456 | 65 | 189 | 5.2 | 7.0 | 0.00 | 0.01 | 0.01 | 91 | 1009.5 |
| 20260506181953 | 65 | 199 | 2.6 | 5.2 | 0.00 | 0.01 | 0.01 | 91 | 1009.5 |
| 20260506181451 | 66 | 248 | 4.3 | 8.7 | 0.00 | 0.01 | 0.01 | 90 | 1009.3 |
| 20260506180947 | 66 | 133 | 2.6 | 11.3 | 0.00 | 0.01 | 0.01 | 89 | 1009.5 |
| 20260506180444 | 67 | 107 | 6.1 | 11.3 | 0.00 | 0.01 | 0.01 | 88 | 1009.4 |
| 20260506175941 | 67 | 102 | 4.3 | 9.6 | 0.00 | 0.01 | 0.01 | 86 | 1009.3 |
| 20260506175437 | 67 | 157 | 0.0 | 7.8 | 0.00 | 0.01 | 0.01 | 87 | 1009.4 |